createdAt,value
2019-03-04T00:00:54.653Z,0.00
2019-03-04T00:01:54.625Z,0.00
2019-03-04T00:02:54.583Z,0.00
2019-03-04T00:03:54.554Z,0.00
2019-03-04T00:04:54.812Z,0.00
2019-03-04T00:05:54.539Z,0.00
2019-03-04T00:06:54.511Z,0.00
2019-03-04T00:07:54.550Z,0.00
2019-03-04T00:08:54.656Z,0.00
2019-03-04T00:09:54.465Z,0.00
2019-03-04T00:10:54.484Z,0.00
2019-03-04T00:11:54.954Z,0.00
2019-03-04T00:12:54.388Z,0.00
2019-03-04T00:13:54.383Z,0.00
2019-03-04T00:14:54.359Z,0.00
2019-03-04T00:15:54.316Z,0.00
2019-03-04T00:16:54.311Z,0.00
2019-03-04T00:17:54.787Z,0.00
2019-03-04T00:18:54.311Z,0.00
2019-03-04T00:19:54.233Z,0.00
2019-03-04T00:20:54.228Z,0.00
2019-03-04T00:21:54.223Z,0.00
2019-03-04T00:22:54.210Z,0.00
2019-03-04T00:23:54.153Z,0.00
2019-03-04T00:24:54.154Z,0.00
2019-03-04T00:25:54.118Z,0.00
2019-03-04T00:26:54.134Z,0.00
2019-03-04T00:27:54.108Z,0.00
2019-03-04T00:28:54.088Z,0.00
2019-03-04T00:29:54.056Z,0.00
2019-03-04T00:30:54.018Z,0.00
2019-03-04T00:31:53.995Z,0.00
2019-03-04T00:32:53.982Z,0.00
2019-03-04T00:33:53.962Z,0.00
2019-03-04T00:34:53.944Z,0.00
2019-03-04T00:35:53.919Z,0.00
2019-03-04T00:36:53.923Z,0.00
2019-03-04T00:37:53.922Z,0.00
2019-03-04T00:38:53.866Z,0.00
2019-03-04T00:39:53.852Z,0.00
2019-03-04T00:40:54.188Z,0.00
2019-03-04T00:41:53.805Z,0.00
2019-03-04T00:42:53.783Z,0.00
2019-03-04T00:43:53.757Z,0.00
2019-03-04T00:44:53.763Z,0.00
2019-03-04T00:45:53.735Z,0.00
2019-03-04T00:46:53.700Z,0.00
2019-03-04T00:47:53.673Z,0.00
2019-03-04T00:48:53.690Z,0.00
2019-03-04T00:49:53.635Z,0.00
2019-03-04T00:50:53.614Z,0.00
2019-03-04T00:51:53.598Z,0.00
2019-03-04T00:52:53.569Z,0.00
2019-03-04T00:53:53.571Z,0.00
2019-03-04T00:54:53.586Z,0.00
2019-03-04T00:55:53.547Z,0.00
2019-03-04T00:56:53.575Z,0.00
2019-03-04T00:57:53.513Z,0.00
2019-03-04T00:58:53.468Z,0.00
2019-03-04T00:59:53.430Z,0.00
2019-03-04T01:00:53.411Z,0.00
2019-03-04T01:01:53.439Z,0.00
2019-03-04T01:02:53.371Z,0.00
2019-03-04T01:03:53.349Z,0.00
2019-03-04T01:04:53.373Z,0.00
2019-03-04T01:05:53.323Z,0.00
2019-03-04T01:06:53.323Z,0.00
2019-03-04T01:07:53.313Z,0.00
2019-03-04T01:08:53.251Z,0.00
2019-03-04T01:09:53.264Z,0.00
2019-03-04T01:10:53.209Z,0.00
2019-03-04T01:11:53.184Z,0.00
2019-03-04T01:12:53.164Z,0.00
2019-03-04T01:13:53.176Z,0.00
2019-03-04T01:14:53.126Z,0.00
2019-03-04T01:15:53.127Z,0.00
2019-03-04T01:16:53.085Z,0.00
2019-03-04T01:17:53.080Z,0.00
2019-03-04T01:18:53.137Z,0.00
2019-03-04T01:19:53.025Z,0.00
2019-03-04T01:20:53.005Z,0.00
2019-03-04T01:21:53.018Z,0.00
2019-03-04T01:22:52.979Z,0.00
2019-03-04T01:23:52.973Z,0.00
2019-03-04T01:24:52.919Z,0.00
2019-03-04T01:25:52.923Z,0.00
2019-03-04T01:26:52.891Z,0.00
2019-03-04T01:27:52.864Z,0.00
2019-03-04T01:28:52.862Z,0.00
2019-03-04T01:29:52.834Z,0.00
2019-03-04T01:30:52.809Z,0.00
2019-03-04T01:31:52.789Z,0.00
2019-03-04T01:32:52.761Z,0.00
2019-03-04T01:33:52.771Z,0.00
2019-03-04T01:34:52.719Z,0.00
2019-03-04T01:35:52.703Z,0.00
2019-03-04T01:36:52.689Z,0.00
2019-03-04T01:37:52.664Z,0.00
2019-03-04T01:38:52.643Z,0.00
2019-03-04T01:39:52.626Z,0.00
2019-03-04T01:40:52.634Z,0.00
2019-03-04T01:41:52.615Z,0.00
2019-03-04T01:42:52.558Z,0.00
2019-03-04T01:43:52.541Z,0.00
2019-03-04T01:44:52.525Z,0.00
2019-03-04T01:45:52.499Z,0.00
2019-03-04T01:46:52.482Z,0.00
2019-03-04T01:47:52.496Z,0.00
2019-03-04T01:48:52.442Z,0.00
2019-03-04T01:49:52.450Z,0.00
2019-03-04T01:50:52.421Z,0.00
2019-03-04T01:51:52.404Z,0.00
2019-03-04T01:52:52.355Z,0.00
2019-03-04T01:53:52.344Z,0.00
2019-03-04T01:54:52.348Z,0.00
2019-03-04T01:55:52.306Z,0.00
2019-03-04T01:56:52.291Z,0.00
2019-03-04T01:57:52.253Z,0.00
2019-03-04T01:58:52.236Z,0.00
2019-03-04T01:59:52.224Z,0.00
2019-03-04T02:00:52.216Z,0.00
2019-03-04T02:01:52.174Z,0.00
2019-03-04T02:02:52.161Z,0.00
2019-03-04T02:03:52.145Z,0.00
2019-03-04T02:04:52.135Z,0.00
2019-03-04T02:05:52.109Z,0.00
2019-03-04T02:06:52.124Z,0.00
2019-03-04T02:07:52.093Z,0.00
2019-03-04T02:08:52.038Z,0.00
2019-03-04T02:09:52.019Z,0.00
2019-03-04T02:10:51.998Z,0.00
2019-03-04T02:11:51.975Z,0.00
2019-03-04T02:12:51.957Z,0.00
2019-03-04T02:13:51.942Z,0.00
2019-03-04T02:14:51.951Z,0.00
2019-03-04T02:15:51.933Z,0.00
2019-03-04T02:16:51.874Z,0.00
2019-03-04T02:17:51.855Z,0.00
2019-03-04T02:18:51.858Z,0.00
2019-03-04T02:21:24.931Z,0.00
2019-03-04T02:22:14.809Z,0.00
2019-03-04T02:23:14.794Z,0.00
2019-03-04T02:24:14.778Z,0.00
2019-03-04T02:25:14.746Z,0.00
2019-03-04T02:27:36.836Z,0.00
2019-03-04T02:28:36.769Z,0.00
2019-03-04T02:30:30.177Z,0.00
2019-03-04T02:31:30.137Z,0.00
2019-03-04T02:33:24.485Z,0.00
2019-03-04T02:34:24.457Z,0.00
2019-03-04T02:35:24.455Z,0.00
2019-03-04T02:36:24.970Z,0.00
2019-03-04T02:37:24.395Z,0.00
2019-03-04T02:38:24.371Z,0.00
2019-03-04T02:39:24.375Z,0.00
2019-03-04T02:40:24.347Z,0.00
2019-03-04T02:41:24.333Z,0.00
2019-03-04T02:42:24.295Z,0.00
2019-03-04T02:43:24.289Z,0.00
2019-03-04T02:44:24.262Z,0.00
2019-03-04T02:45:24.231Z,0.00
2019-03-04T02:46:24.219Z,0.00
2019-03-04T02:47:24.190Z,0.00
2019-03-04T02:48:24.172Z,0.00
2019-03-04T02:49:24.151Z,0.00
2019-03-04T02:50:24.150Z,0.00
2019-03-04T02:51:24.107Z,0.00
2019-03-04T02:52:24.098Z,0.00
2019-03-04T02:53:24.068Z,0.00
2019-03-04T02:54:24.060Z,0.00
2019-03-04T02:55:24.026Z,0.00
2019-03-04T02:56:24.007Z,0.00
2019-03-04T02:57:23.989Z,0.00
2019-03-04T02:58:23.974Z,0.00
2019-03-04T02:59:23.955Z,0.00
2019-03-04T03:01:58.078Z,0.00
2019-03-04T03:02:47.044Z,0.00
2019-03-04T03:03:46.938Z,0.00
2019-03-04T03:04:46.894Z,0.00
2019-03-04T03:05:46.898Z,0.00
2019-03-04T03:08:19.977Z,0.00
2019-03-04T03:09:10.137Z,0.00
2019-03-04T03:10:09.830Z,0.00
2019-03-04T03:11:09.805Z,0.00
2019-03-04T03:12:09.785Z,0.00
2019-03-04T03:13:09.760Z,0.00
2019-03-04T03:14:09.775Z,0.00
2019-03-04T03:15:09.750Z,0.00
2019-03-04T03:16:09.725Z,0.00
2019-03-04T03:17:09.687Z,0.00
2019-03-04T03:18:09.665Z,0.00
2019-03-04T03:20:42.834Z,0.00
2019-03-04T03:21:32.785Z,0.00
2019-03-04T03:22:32.732Z,0.00
2019-03-04T03:23:32.646Z,0.00
2019-03-04T03:24:32.591Z,0.00
2019-03-04T03:25:32.578Z,0.00
2019-03-04T03:26:32.568Z,0.00
2019-03-04T03:27:32.522Z,0.00
2019-03-04T03:28:32.504Z,0.00
2019-03-04T03:29:32.501Z,0.00
2019-03-04T03:30:32.484Z,0.00
2019-03-04T03:31:32.449Z,0.00
2019-03-04T03:32:32.432Z,0.00
2019-03-04T03:33:32.416Z,0.00
2019-03-04T03:34:32.372Z,0.00
2019-03-04T03:35:32.371Z,0.00
2019-03-04T03:36:32.376Z,0.00
2019-03-04T03:37:32.315Z,0.00
2019-03-04T03:38:32.314Z,0.00
2019-03-04T03:41:05.422Z,0.00
2019-03-04T03:41:55.332Z,0.00
2019-03-04T03:42:55.297Z,0.00
2019-03-04T03:43:55.320Z,0.00
2019-03-04T03:44:55.295Z,0.00
2019-03-04T03:45:55.248Z,0.00
2019-03-04T03:46:55.224Z,0.00
2019-03-04T03:47:55.220Z,0.00
2019-03-04T03:48:55.171Z,0.00
2019-03-04T03:49:55.169Z,0.00
2019-03-04T03:50:55.145Z,0.00
2019-03-04T03:51:55.171Z,0.00
2019-03-04T03:52:55.125Z,0.00
2019-03-04T03:53:55.114Z,0.00
2019-03-04T03:54:55.075Z,0.00
2019-03-04T03:55:55.059Z,0.00
2019-03-04T03:56:55.022Z,0.00
2019-03-04T03:57:55.004Z,0.00
2019-03-04T03:58:55.004Z,0.00
2019-03-04T03:59:54.976Z,0.00
2019-03-04T04:00:54.933Z,0.00
2019-03-04T04:01:54.968Z,0.00
2019-03-04T04:02:54.918Z,0.00
2019-03-04T04:05:17.902Z,0.00
2019-03-04T04:06:17.891Z,0.00
2019-03-04T04:07:17.903Z,0.00
2019-03-04T04:08:17.851Z,0.00
2019-03-04T04:09:17.878Z,0.00
2019-03-04T04:10:17.785Z,0.00
2019-03-04T04:11:17.815Z,0.00
2019-03-04T04:12:17.782Z,0.00
2019-03-04T04:13:17.741Z,0.00
2019-03-04T04:14:17.804Z,0.00
2019-03-04T04:16:51.817Z,0.00
2019-03-04T04:17:40.766Z,0.00
2019-03-04T04:18:40.680Z,0.00
2019-03-04T04:19:40.643Z,0.00
2019-03-04T04:20:40.639Z,0.00
2019-03-04T04:21:40.615Z,0.00
2019-03-04T04:22:40.651Z,0.00
2019-03-04T04:23:40.589Z,0.00
2019-03-04T04:24:40.539Z,0.00
2019-03-04T04:25:40.532Z,0.00
2019-03-04T04:26:40.502Z,0.00
2019-03-04T04:27:40.485Z,0.00
2019-03-04T04:28:40.487Z,0.00
2019-03-04T04:29:40.444Z,0.00
2019-03-04T04:30:40.422Z,0.00
2019-03-04T04:31:40.414Z,0.00
2019-03-04T04:32:40.371Z,0.00
2019-03-04T04:33:40.373Z,0.00
2019-03-04T04:34:40.341Z,0.00
2019-03-04T04:35:40.310Z,0.00
2019-03-04T04:36:40.292Z,0.00
2019-03-04T04:37:40.285Z,0.00
2019-03-04T04:38:40.269Z,0.00
2019-03-04T04:39:40.240Z,0.00
2019-03-04T04:40:40.232Z,0.00
2019-03-04T04:41:40.222Z,0.00
2019-03-04T04:42:40.201Z,0.00
2019-03-04T04:43:40.150Z,0.00
2019-03-04T04:44:40.141Z,0.00
2019-03-04T04:45:40.108Z,0.00
2019-03-04T04:46:40.097Z,0.00
2019-03-04T04:47:40.072Z,0.00
2019-03-04T04:48:47.743Z,0.00
2019-03-04T04:50:42.131Z,0.00
2019-03-04T04:51:34.462Z,0.00
2019-03-04T04:53:27.938Z,0.00
2019-03-04T04:54:27.792Z,0.00
2019-03-04T04:56:32.322Z,0.00
2019-03-04T04:57:22.122Z,0.00
2019-03-04T04:58:22.371Z,0.00
2019-03-04T04:59:22.102Z,0.00
2019-03-04T05:00:22.060Z,0.00
2019-03-04T05:01:22.062Z,0.00
2019-03-04T05:02:22.020Z,0.00
2019-03-04T05:03:22.011Z,0.00
2019-03-04T05:04:21.987Z,0.00
2019-03-04T05:06:52.645Z,0.00
2019-03-04T05:07:45.013Z,0.00
2019-03-04T05:08:44.959Z,0.00
2019-03-04T05:09:44.926Z,0.00
2019-03-04T05:10:44.886Z,0.00
2019-03-04T05:11:44.899Z,0.00
2019-03-04T05:12:44.857Z,0.00
2019-03-04T05:13:44.815Z,0.00
2019-03-04T05:14:44.806Z,0.00
2019-03-04T05:15:44.803Z,0.00
2019-03-04T05:16:44.757Z,0.00
2019-03-04T05:17:44.811Z,0.00
2019-03-04T05:18:44.754Z,0.00
2019-03-04T05:19:44.697Z,0.00
2019-03-04T05:20:44.725Z,0.00
2019-03-04T05:21:44.691Z,0.00
2019-03-04T05:22:44.640Z,0.00
2019-03-04T05:23:44.639Z,0.00
2019-03-04T05:24:44.599Z,0.00
2019-03-04T05:25:44.580Z,0.00
2019-03-04T05:26:44.571Z,0.00
2019-03-04T05:27:44.552Z,0.00
2019-03-04T05:28:44.558Z,0.00
2019-03-04T05:29:45.984Z,0.00
2019-03-04T05:30:44.484Z,0.00
2019-03-04T05:31:44.469Z,0.00
2019-03-04T05:34:15.148Z,0.00
2019-03-04T05:35:07.452Z,0.00
2019-03-04T05:37:13.187Z,0.00
2019-03-04T05:38:01.970Z,0.00
2019-03-04T05:40:35.246Z,0.00
2019-03-04T05:41:24.900Z,0.00
2019-03-04T05:43:57.890Z,0.00
2019-03-04T05:46:20.858Z,0.00
2019-03-04T05:47:10.808Z,0.00
2019-03-04T05:48:10.918Z,0.00
2019-03-04T05:49:10.721Z,0.00
2019-03-04T05:50:10.684Z,0.00
2019-03-04T05:52:33.754Z,0.00
2019-03-04T05:55:08.898Z,0.00
2019-03-04T05:55:56.779Z,0.00
2019-03-04T05:56:56.675Z,0.00
2019-03-04T05:57:56.640Z,0.00
2019-03-04T05:58:56.629Z,0.00
2019-03-04T05:59:56.598Z,0.00
2019-03-04T06:00:56.611Z,0.00
2019-03-04T06:03:30.168Z,0.00
2019-03-04T06:04:19.815Z,0.00
2019-03-04T06:05:20.021Z,0.00
2019-03-04T06:06:19.519Z,0.00
2019-03-04T06:07:19.485Z,0.00
2019-03-04T06:08:19.490Z,0.00
2019-03-04T06:09:19.453Z,0.00
2019-03-04T06:10:19.557Z,0.00
2019-03-04T06:11:19.407Z,0.00
2019-03-04T06:12:19.377Z,0.00
2019-03-04T06:13:19.357Z,0.00
2019-03-04T06:14:19.342Z,0.00
2019-03-04T06:15:19.339Z,0.00
2019-03-04T06:16:19.345Z,0.00
2019-03-04T06:17:19.299Z,0.00
2019-03-04T06:18:19.293Z,0.00
2019-03-04T06:19:19.235Z,0.00
2019-03-04T06:20:19.217Z,0.00
2019-03-04T06:21:19.187Z,0.00
2019-03-04T06:22:19.172Z,0.00
2019-03-04T06:23:19.146Z,0.00
2019-03-04T06:24:19.122Z,0.00
2019-03-04T06:25:19.108Z,0.00
2019-03-04T06:26:19.086Z,0.00
2019-03-04T06:27:19.053Z,0.00
2019-03-04T06:28:19.031Z,0.00
2019-03-04T06:29:19.017Z,0.00
2019-03-04T06:30:18.994Z,0.00
2019-03-04T06:31:18.972Z,0.00
2019-03-04T06:32:18.950Z,0.00
2019-03-04T06:33:18.929Z,0.00
2019-03-04T06:34:18.916Z,0.00
2019-03-04T06:35:18.889Z,0.00
2019-03-04T06:36:18.857Z,0.00
2019-03-04T06:37:18.842Z,0.00
2019-03-04T06:38:18.815Z,0.00
2019-03-04T06:39:18.787Z,5.63
2019-03-04T06:40:18.778Z,5.63
2019-03-04T06:41:18.757Z,5.63
2019-03-04T06:42:18.742Z,5.63
2019-03-04T06:43:18.698Z,11.25
2019-03-04T06:44:18.675Z,11.25
2019-03-04T06:45:18.657Z,11.25
2019-03-04T06:46:18.632Z,11.25
2019-03-04T06:47:18.615Z,11.25
2019-03-04T06:48:18.581Z,5.63
2019-03-04T06:49:18.576Z,11.25
2019-03-04T06:50:18.546Z,11.25
2019-03-04T06:51:18.526Z,16.88
2019-03-04T06:52:18.496Z,22.50
2019-03-04T06:53:18.480Z,28.13
2019-03-04T06:54:18.447Z,28.13
2019-03-04T06:55:18.423Z,28.13
2019-03-04T06:56:18.422Z,39.38
2019-03-04T06:57:27.887Z,45.00
2019-03-04T06:58:18.355Z,45.00
2019-03-04T06:59:18.357Z,39.38
2019-03-04T07:00:18.320Z,39.38
2019-03-04T07:01:18.289Z,33.75
2019-03-04T07:02:18.259Z,33.75
2019-03-04T07:03:18.247Z,33.75
2019-03-04T07:04:18.219Z,33.75
2019-03-04T07:05:18.194Z,39.38
2019-03-04T07:06:18.182Z,39.38
2019-03-04T07:07:18.155Z,45.00
2019-03-04T07:08:18.133Z,39.38
2019-03-04T07:09:18.107Z,45.00
2019-03-04T07:10:18.090Z,56.25
2019-03-04T07:11:18.062Z,56.25
2019-03-04T07:12:18.035Z,56.25
2019-03-04T07:13:18.016Z,56.25
2019-03-04T07:14:18.005Z,61.88
2019-03-04T07:15:17.964Z,61.88
2019-03-04T07:16:18.006Z,56.25
2019-03-04T07:17:17.953Z,56.25
2019-03-04T07:18:17.902Z,50.63
2019-03-04T07:19:17.878Z,50.63
2019-03-04T07:20:17.885Z,56.25
2019-03-04T07:21:17.844Z,56.25
2019-03-04T07:22:17.810Z,56.25
2019-03-04T07:23:17.798Z,56.25
2019-03-04T07:24:17.771Z,61.88
2019-03-04T07:25:17.738Z,56.25
2019-03-04T07:26:17.722Z,56.25
2019-03-04T07:27:17.715Z,56.25
2019-03-04T07:28:17.680Z,56.25
2019-03-04T07:29:17.649Z,61.88
2019-03-04T07:30:17.627Z,67.50
2019-03-04T07:31:17.605Z,67.50
2019-03-04T07:32:17.649Z,73.13
2019-03-04T07:33:17.566Z,78.75
2019-03-04T07:34:17.555Z,90.00
2019-03-04T07:35:17.523Z,101.25
2019-03-04T07:36:17.487Z,118.13
2019-03-04T07:37:17.491Z,146.25
2019-03-04T07:38:17.452Z,168.75
2019-03-04T07:39:17.431Z,180.00
2019-03-04T07:40:17.421Z,185.63
2019-03-04T07:41:17.382Z,185.63
2019-03-04T07:42:17.354Z,196.88
2019-03-04T07:43:17.329Z,202.50
2019-03-04T07:44:17.313Z,202.50
2019-03-04T07:45:17.303Z,202.50
2019-03-04T07:46:17.270Z,196.88
2019-03-04T07:47:17.263Z,202.50
2019-03-04T07:48:17.239Z,168.75
2019-03-04T07:49:17.204Z,101.25
2019-03-04T07:50:17.181Z,90.00
2019-03-04T07:51:17.170Z,78.75
2019-03-04T07:52:17.139Z,84.38
2019-03-04T07:53:19.087Z,84.38
2019-03-04T07:54:17.100Z,90.00
2019-03-04T07:55:17.068Z,78.75
2019-03-04T07:56:17.052Z,67.50
2019-03-04T07:57:17.031Z,56.25
2019-03-04T07:58:17.018Z,50.63
2019-03-04T07:59:17.017Z,67.50
2019-03-04T08:00:16.954Z,61.88
2019-03-04T08:01:16.927Z,73.13
2019-03-04T08:02:16.919Z,95.63
2019-03-04T08:03:16.914Z,101.25
2019-03-04T08:04:16.895Z,112.50
2019-03-04T08:05:16.876Z,95.63
2019-03-04T08:06:16.867Z,84.38
2019-03-04T08:07:16.809Z,73.13
2019-03-04T08:08:16.777Z,106.88
2019-03-04T08:09:16.782Z,163.13
2019-03-04T08:10:16.761Z,157.50
2019-03-04T08:11:16.707Z,174.38
2019-03-04T08:12:16.709Z,168.75
2019-03-04T08:13:16.668Z,146.25
2019-03-04T08:14:16.659Z,112.50
2019-03-04T08:15:16.627Z,101.25
2019-03-04T08:16:16.603Z,95.63
2019-03-04T08:17:16.579Z,101.25
2019-03-04T08:18:16.586Z,95.63
2019-03-04T08:19:16.537Z,101.25
2019-03-04T08:21:49.644Z,90.00
2019-03-04T08:22:39.616Z,90.00
2019-03-04T08:23:39.511Z,84.38
2019-03-04T08:24:39.479Z,90.00
2019-03-04T08:27:12.539Z,151.88
2019-03-04T08:28:02.435Z,180.00
2019-03-04T08:29:02.440Z,196.88
2019-03-04T08:30:02.409Z,225.00
2019-03-04T08:31:02.364Z,219.38
2019-03-04T08:32:02.352Z,219.38
2019-03-04T08:33:02.319Z,174.38
2019-03-04T08:34:02.297Z,135.00
2019-03-04T08:35:02.277Z,129.38
2019-03-04T08:36:02.260Z,146.25
2019-03-04T08:37:02.243Z,151.88
2019-03-04T08:38:02.209Z,140.63
2019-03-04T08:39:02.238Z,140.63
2019-03-04T08:40:02.190Z,174.38
2019-03-04T08:41:02.169Z,151.88
2019-03-04T08:42:02.130Z,146.25
2019-03-04T08:43:02.161Z,219.38
2019-03-04T08:44:02.086Z,208.13
2019-03-04T08:45:02.081Z,196.88
2019-03-04T08:46:02.035Z,196.88
2019-03-04T08:47:02.059Z,219.38
2019-03-04T08:48:01.992Z,253.13
2019-03-04T08:49:01.979Z,315.00
2019-03-04T08:50:01.951Z,315.00
2019-03-04T08:51:02.441Z,281.25
2019-03-04T08:52:01.909Z,258.75
2019-03-04T08:53:01.888Z,275.63
2019-03-04T08:54:01.861Z,303.75
2019-03-04T08:55:01.841Z,281.25
2019-03-04T08:56:01.823Z,286.88
2019-03-04T08:57:04.143Z,236.25
2019-03-04T08:58:01.792Z,230.63
2019-03-04T08:59:01.801Z,286.88
2019-03-04T09:00:01.743Z,326.25
2019-03-04T09:01:01.714Z,247.50
2019-03-04T09:02:01.792Z,202.50
2019-03-04T09:03:01.694Z,219.38
2019-03-04T09:05:25.550Z,241.88
2019-03-04T09:06:25.536Z,281.25
2019-03-04T09:07:25.472Z,326.25
2019-03-04T09:08:25.625Z,343.13
2019-03-04T09:10:47.804Z,247.50
2019-03-04T09:13:20.584Z,202.50
2019-03-04T09:14:10.713Z,174.38
2019-03-04T09:15:10.494Z,191.25
2019-03-04T09:16:10.404Z,225.00
2019-03-04T09:17:10.690Z,202.50
2019-03-04T09:18:10.354Z,191.25
2019-03-04T09:19:10.338Z,208.13
2019-03-04T09:20:10.322Z,151.88
2019-03-04T09:22:43.411Z,208.13
2019-03-04T09:23:33.479Z,281.25
2019-03-04T09:24:33.559Z,253.13
2019-03-04T09:27:06.474Z,236.25
2019-03-04T09:29:27.000Z,146.25
2019-03-04T09:30:19.370Z,191.25
2019-03-04T09:32:23.847Z,202.50
2019-03-04T09:34:48.798Z,202.50
2019-03-04T09:35:37.784Z,163.13
2019-03-04T09:36:37.663Z,163.13
2019-03-04T09:37:37.549Z,157.50
2019-03-04T09:38:37.503Z,151.88
2019-03-04T09:39:37.542Z,123.75
2019-03-04T09:42:10.834Z,123.75
2019-03-04T09:43:00.678Z,101.25
2019-03-04T09:44:00.475Z,84.38
2019-03-04T09:45:00.440Z,84.38
2019-03-04T09:46:00.464Z,95.63
2019-03-04T09:47:00.399Z,112.50
2019-03-04T09:48:00.350Z,129.38
2019-03-04T09:49:00.359Z,129.38
2019-03-04T09:50:00.420Z,112.50
2019-03-04T09:51:00.355Z,135.00
2019-03-04T09:52:00.265Z,135.00
2019-03-04T09:53:00.320Z,140.63
2019-03-04T09:54:00.313Z,118.13
2019-03-04T09:55:00.314Z,123.75
2019-03-04T09:56:00.265Z,146.25
2019-03-04T09:57:00.187Z,163.13
2019-03-04T09:58:00.186Z,174.38
2019-03-04T09:59:00.112Z,135.00
2019-03-04T10:00:00.298Z,112.50
2019-03-04T10:01:00.073Z,163.13
2019-03-04T10:02:00.061Z,174.38
2019-03-04T10:03:00.042Z,163.13
2019-03-04T10:04:00.010Z,163.13
2019-03-04T10:04:59.984Z,163.13
2019-03-04T10:05:59.966Z,135.00
2019-03-04T10:06:59.993Z,140.63
2019-03-04T10:07:59.938Z,129.38
2019-03-04T10:08:59.916Z,123.75
2019-03-04T10:09:59.915Z,135.00
2019-03-04T10:12:32.085Z,118.13
2019-03-04T10:13:21.953Z,123.75
2019-03-04T10:14:21.903Z,118.13
2019-03-04T10:15:21.957Z,118.13
2019-03-04T10:16:21.855Z,112.50
2019-03-04T10:17:21.821Z,106.88
2019-03-04T10:18:21.889Z,118.13
2019-03-04T10:19:21.784Z,118.13
2019-03-04T10:20:21.755Z,129.38
2019-03-04T10:21:21.720Z,146.25
2019-03-04T10:22:21.721Z,163.13
2019-03-04T10:23:21.849Z,163.13
2019-03-04T10:24:21.768Z,196.88
2019-03-04T10:25:21.650Z,196.88
2019-03-04T10:26:22.975Z,196.88
2019-03-04T10:27:25.221Z,202.50
2019-03-04T10:28:21.574Z,202.50
2019-03-04T10:29:21.555Z,219.38
2019-03-04T10:30:21.684Z,196.88
2019-03-04T10:31:21.516Z,219.38
2019-03-04T10:32:21.536Z,236.25
2019-03-04T10:33:21.469Z,236.25
2019-03-04T10:34:21.482Z,213.75
2019-03-04T10:35:21.421Z,253.13
2019-03-04T10:36:21.393Z,253.13
2019-03-04T10:37:21.403Z,202.50
2019-03-04T10:38:22.760Z,196.88
2019-03-04T10:39:22.529Z,163.13
2019-03-04T10:40:21.333Z,129.38
2019-03-04T10:41:21.296Z,123.75
2019-03-04T10:42:21.297Z,140.63
2019-03-04T10:43:21.282Z,140.63
2019-03-04T10:44:21.230Z,208.13
2019-03-04T10:45:21.209Z,213.75
2019-03-04T10:46:21.244Z,213.75
2019-03-04T10:47:21.172Z,208.13
2019-03-04T10:48:21.140Z,208.13
2019-03-04T10:49:21.161Z,225.00
2019-03-04T10:50:21.099Z,213.75
2019-03-04T10:51:21.073Z,225.00
2019-03-04T10:52:21.063Z,219.38
2019-03-04T10:53:21.030Z,202.50
2019-03-04T10:54:21.007Z,202.50
2019-03-04T10:55:21.001Z,157.50
2019-03-04T10:56:20.984Z,157.50
2019-03-04T10:57:20.970Z,146.25
2019-03-04T10:58:20.927Z,151.88
2019-03-04T10:59:20.928Z,140.63
2019-03-04T11:00:20.917Z,157.50
2019-03-04T11:01:30.187Z,157.50
2019-03-04T11:02:20.871Z,151.88
2019-03-04T11:03:20.829Z,151.88
2019-03-04T11:04:20.804Z,129.38
2019-03-04T11:05:20.789Z,95.63
2019-03-04T11:06:20.757Z,90.00
2019-03-04T11:07:20.759Z,78.75
2019-03-04T11:08:20.712Z,67.50
2019-03-04T11:09:20.762Z,50.63
2019-03-04T11:10:22.544Z,39.38
2019-03-04T11:11:29.494Z,50.63
2019-03-04T11:12:20.624Z,78.75
2019-03-04T11:13:20.613Z,84.38
2019-03-04T11:14:20.628Z,78.75
2019-03-04T11:15:20.564Z,73.13
2019-03-04T11:16:20.552Z,73.13
2019-03-04T11:17:20.531Z,67.50
2019-03-04T11:18:20.506Z,84.38
2019-03-04T11:19:20.476Z,112.50
2019-03-04T11:20:20.468Z,135.00
2019-03-04T11:21:20.536Z,180.00
2019-03-04T11:22:20.461Z,230.63
2019-03-04T11:23:20.388Z,292.50
2019-03-04T11:24:20.356Z,337.50
2019-03-04T11:25:20.338Z,331.88
2019-03-04T11:26:20.321Z,309.38
2019-03-04T11:27:20.298Z,230.63
2019-03-04T11:28:20.279Z,174.38
2019-03-04T11:29:20.245Z,196.88
2019-03-04T11:30:20.228Z,157.50
2019-03-04T11:31:20.205Z,151.88
2019-03-04T11:32:20.278Z,151.88
2019-03-04T11:33:20.162Z,157.50
2019-03-04T11:34:20.140Z,157.50
2019-03-04T11:35:20.182Z,157.50
2019-03-04T11:36:20.085Z,135.00
2019-03-04T11:37:20.067Z,168.75
2019-03-04T11:38:20.049Z,163.13
2019-03-04T11:39:20.032Z,140.63
2019-03-04T11:40:20.026Z,191.25
2019-03-04T11:41:20.001Z,123.75
2019-03-04T11:42:19.957Z,140.63
2019-03-04T11:43:19.936Z,140.63
2019-03-04T11:44:20.003Z,146.25
2019-03-04T11:45:19.893Z,163.13
2019-03-04T11:46:19.857Z,180.00
2019-03-04T11:47:19.863Z,146.25
2019-03-04T11:48:19.829Z,180.00
2019-03-04T11:49:19.853Z,236.25
2019-03-04T11:50:19.787Z,298.13
2019-03-04T11:51:19.752Z,303.75
2019-03-04T11:52:19.724Z,320.63
2019-03-04T11:53:19.705Z,337.50
2019-03-04T11:54:19.683Z,376.88
2019-03-04T11:55:19.663Z,410.63
2019-03-04T11:56:20.180Z,410.63
2019-03-04T11:57:19.628Z,410.63
2019-03-04T11:58:19.618Z,421.88
2019-03-04T11:59:19.572Z,427.50
2019-03-04T12:00:20.041Z,421.88
2019-03-04T12:01:19.526Z,399.38
2019-03-04T12:02:19.551Z,376.88
2019-03-04T12:03:19.505Z,343.13
2019-03-04T12:04:19.459Z,315.00
2019-03-04T12:05:19.486Z,326.25
2019-03-04T12:06:19.596Z,298.13
2019-03-04T12:07:19.398Z,281.25
2019-03-04T12:08:19.364Z,270.00
2019-03-04T12:09:19.344Z,275.63
2019-03-04T12:10:19.435Z,292.50
2019-03-04T12:11:19.303Z,315.00
2019-03-04T12:12:20.270Z,337.50
2019-03-04T12:13:19.277Z,371.25
2019-03-04T12:14:19.228Z,376.88
2019-03-04T12:15:19.240Z,388.13
2019-03-04T12:16:19.185Z,410.63
2019-03-04T12:17:19.170Z,427.50
2019-03-04T12:18:19.137Z,416.25
2019-03-04T12:19:19.217Z,416.25
2019-03-04T12:20:21.559Z,438.75
2019-03-04T12:21:19.112Z,399.38
2019-03-04T12:22:19.197Z,427.50
2019-03-04T12:23:19.060Z,466.88
2019-03-04T12:24:19.040Z,489.38
2019-03-04T12:25:19.012Z,489.38
2019-03-04T12:26:18.973Z,461.25
2019-03-04T12:27:18.957Z,433.13
2019-03-04T12:28:18.923Z,388.13
2019-03-04T12:29:19.022Z,331.88
2019-03-04T12:30:18.924Z,253.13
2019-03-04T12:31:18.878Z,208.13
2019-03-04T12:32:18.835Z,180.00
2019-03-04T12:33:18.826Z,185.63
2019-03-04T12:34:24.702Z,185.63
2019-03-04T12:35:18.790Z,241.88
2019-03-04T12:37:18.724Z,225.00
2019-03-04T12:38:18.703Z,371.25
2019-03-04T12:39:18.674Z,281.25
2019-03-04T12:40:18.697Z,292.50
2019-03-04T12:41:18.640Z,270.00
2019-03-04T12:42:18.608Z,230.63
2019-03-04T12:43:18.591Z,157.50
2019-03-04T12:44:18.593Z,140.63
2019-03-04T12:45:18.552Z,174.38
2019-03-04T12:46:18.528Z,225.00
2019-03-04T12:47:18.505Z,286.88
2019-03-04T12:48:18.474Z,286.88
2019-03-04T12:49:18.574Z,264.38
2019-03-04T12:50:18.834Z,275.63
2019-03-04T12:51:23.291Z,275.63
2019-03-04T12:52:18.388Z,236.25
2019-03-04T12:53:18.359Z,208.13
2019-03-04T12:54:18.640Z,202.50
2019-03-04T12:55:18.326Z,258.75
2019-03-04T12:56:18.302Z,286.88
2019-03-04T12:57:18.272Z,309.38
2019-03-04T12:58:18.344Z,275.63
2019-03-04T12:59:18.238Z,208.13
2019-03-04T13:00:18.206Z,106.88
2019-03-04T13:01:18.193Z,101.25
2019-03-04T13:02:18.193Z,101.25
2019-03-04T13:03:18.182Z,146.25
2019-03-04T13:04:18.119Z,180.00
2019-03-04T13:05:18.107Z,163.13
2019-03-04T13:06:18.097Z,202.50
2019-03-04T13:07:18.067Z,185.63
2019-03-04T13:08:18.036Z,191.25
2019-03-04T13:09:18.039Z,157.50
2019-03-04T13:10:17.990Z,129.38
2019-03-04T13:11:17.973Z,163.13
2019-03-04T13:12:17.948Z,163.13
2019-03-04T13:13:17.924Z,163.13
2019-03-04T13:14:17.914Z,163.13
2019-03-04T13:15:17.878Z,123.75
2019-03-04T13:16:17.890Z,135.00
2019-03-04T13:17:17.841Z,157.50
2019-03-04T13:18:17.851Z,180.00
2019-03-04T13:19:17.789Z,157.50
2019-03-04T13:20:17.774Z,157.50
2019-03-04T13:21:17.751Z,118.13
2019-03-04T13:22:17.736Z,129.38
2019-03-04T13:23:17.710Z,106.88
2019-03-04T13:24:17.761Z,90.00
2019-03-04T13:25:17.653Z,73.13
2019-03-04T13:26:17.636Z,56.25
2019-03-04T13:27:23.781Z,50.63
2019-03-04T13:28:17.687Z,50.63
2019-03-04T13:29:17.614Z,50.63
2019-03-04T13:30:17.604Z,84.38
2019-03-04T13:31:17.549Z,140.63
2019-03-04T13:32:17.555Z,151.88
2019-03-04T13:33:17.477Z,118.13
2019-03-04T13:34:17.532Z,95.63
2019-03-04T13:35:24.473Z,84.38
2019-03-04T13:36:17.436Z,84.38
2019-03-04T13:37:17.406Z,112.50
2019-03-04T13:38:17.428Z,151.88
2019-03-04T13:39:17.369Z,309.38
2019-03-04T13:40:17.347Z,360.00